sensor_id;sensor_type;location;lat;lon;timestamp;temperature;humidity
19000;DHT22;9633;50.980;13.850;2023-10-19T00:00:01;9.30;1.00
19000;DHT22;9633;50.980;13.850;2023-10-19T00:01:51;9.30;1.00
19000;DHT22;9633;50.980;13.850;2023-10-19T00:03:25;9.30;1.00
19000;DHT22;9633;50.980;13.850;2023-10-19T00:04:59;9.20;1.00
19000;DHT22;9633;50.980;13.850;2023-10-19T00:06:32;9.20;1.00
19000;DHT22;9633;50.980;13.850;2023-10-19T00:08:06;9.30;1.00
19000;DHT22;9633;50.980;13.850;2023-10-19T00:09:46;9.30;1.00
19000;DHT22;9633;50.980;13.850;2023-10-19T00:11:24;9.20;1.00
19000;DHT22;9633;50.980;13.850;2023-10-19T00:12:58;9.20;1.00
19000;DHT22;9633;50.980;13.850;2023-10-19T00:14:32;9.20;1.00
19000;DHT22;9633;50.980;13.850;2023-10-19T00:16:07;9.20;1.00
19000;DHT22;9633;50.980;13.850;2023-10-19T00:17:44;9.20;1.00
19000;DHT22;9633;50.980;13.850;2023-10-19T00:19:17;9.20;1.00
19000;DHT22;9633;50.980;13.850;2023-10-19T00:20:52;9.20;1.00
19000;DHT22;9633;50.980;13.850;2023-10-19T00:22:25;9.30;1.00
19000;DHT22;9633;50.980;13.850;2023-10-19T00:24:03;9.30;1.00
19000;DHT22;9633;50.980;13.850;2023-10-19T00:25:36;9.20;1.00
19000;DHT22;9633;50.980;13.850;2023-10-19T00:27:14;9.30;1.00
19000;DHT22;9633;50.980;13.850;2023-10-19T00:28:48;9.30;1.00
19000;DHT22;9633;50.980;13.850;2023-10-19T00:30:24;9.40;1.00
19000;DHT22;9633;50.980;13.850;2023-10-19T00:32:01;9.30;1.00
19000;DHT22;9633;50.980;13.850;2023-10-19T00:33:35;9.30;1.00
19000;DHT22;9633;50.980;13.850;2023-10-19T00:35:11;9.20;1.00
19000;DHT22;9633;50.980;13.850;2023-10-19T00:36:59;9.20;1.00
19000;DHT22;9633;50.980;13.850;2023-10-19T00:38:41;9.20;1.00
19000;DHT22;9633;50.980;13.850;2023-10-19T00:40:20;9.30;1.00
19000;DHT22;9633;50.980;13.850;2023-10-19T00:42:06;9.30;1.00
19000;DHT22;9633;50.980;13.850;2023-10-19T00:43:42;9.30;1.00
19000;DHT22;9633;50.980;13.850;2023-10-19T00:45:15;9.20;1.00
19000;DHT22;9633;50.980;13.850;2023-10-19T00:46:56;9.30;1.00
19000;DHT22;9633;50.980;13.850;2023-10-19T00:48:35;9.30;1.00
19000;DHT22;9633;50.980;13.850;2023-10-19T00:50:09;9.30;1.00
19000;DHT22;9633;50.980;13.850;2023-10-19T00:51:52;9.30;1.00
19000;DHT22;9633;50.980;13.850;2023-10-19T00:53:28;9.30;1.00
19000;DHT22;9633;50.980;13.850;2023-10-19T00:55:01;9.30;1.00
19000;DHT22;9633;50.980;13.850;2023-10-19T00:56:37;9.30;1.00
19000;DHT22;9633;50.980;13.850;2023-10-19T00:58:09;9.30;1.00
19000;DHT22;9633;50.980;13.850;2023-10-19T00:59:47;9.30;1.00
19000;DHT22;9633;50.980;13.850;2023-10-19T01:01:23;9.30;1.00
19000;DHT22;9633;50.980;13.850;2023-10-19T01:02:57;9.30;1.00
19000;DHT22;9633;50.980;13.850;2023-10-19T01:04:37;9.30;1.00
19000;DHT22;9633;50.980;13.850;2023-10-19T01:06:15;9.40;1.00
19000;DHT22;9633;50.980;13.850;2023-10-19T01:07:50;9.40;1.00
19000;DHT22;9633;50.980;13.850;2023-10-19T01:09:29;9.40;1.00
19000;DHT22;9633;50.980;13.850;2023-10-19T01:11:06;9.40;1.00
19000;DHT22;9633;50.980;13.850;2023-10-19T01:12:43;9.40;1.00
19000;DHT22;9633;50.980;13.850;2023-10-19T01:14:19;9.40;1.00
19000;DHT22;9633;50.980;13.850;2023-10-19T01:15:55;9.40;1.00
19000;DHT22;9633;50.980;13.850;2023-10-19T01:17:30;9.40;1.00
19000;DHT22;9633;50.980;13.850;2023-10-19T01:19:03;9.40;1.00
19000;DHT22;9633;50.980;13.850;2023-10-19T01:20:40;9.40;1.00
19000;DHT22;9633;50.980;13.850;2023-10-19T01:22:23;9.40;1.00
19000;DHT22;9633;50.980;13.850;2023-10-19T01:24:00;9.40;1.00
19000;DHT22;9633;50.980;13.850;2023-10-19T01:25:42;9.40;1.00
19000;DHT22;9633;50.980;13.850;2023-10-19T01:27:18;9.40;1.00
19000;DHT22;9633;50.980;13.850;2023-10-19T01:28:51;9.50;1.00
19000;DHT22;9633;50.980;13.850;2023-10-19T01:30:26;9.50;1.00
19000;DHT22;9633;50.980;13.850;2023-10-19T01:31:59;9.50;1.00
19000;DHT22;9633;50.980;13.850;2023-10-19T01:33:38;9.50;1.00
19000;DHT22;9633;50.980;13.850;2023-10-19T01:35:12;9.50;1.00
19000;DHT22;9633;50.980;13.850;2023-10-19T01:36:44;9.60;1.00
19000;DHT22;9633;50.980;13.850;2023-10-19T01:38:21;9.60;1.00
19000;DHT22;9633;50.980;13.850;2023-10-19T01:39:55;9.60;1.00
19000;DHT22;9633;50.980;13.850;2023-10-19T01:41:29;9.60;1.00
19000;DHT22;9633;50.980;13.850;2023-10-19T01:43:04;9.60;1.00
19000;DHT22;9633;50.980;13.850;2023-10-19T01:44:36;9.60;1.00
19000;DHT22;9633;50.980;13.850;2023-10-19T01:46:11;9.60;1.00
19000;DHT22;9633;50.980;13.850;2023-10-19T01:47:48;9.60;1.00
19000;DHT22;9633;50.980;13.850;2023-10-19T01:49:23;9.60;1.00
19000;DHT22;9633;50.980;13.850;2023-10-19T01:50:59;9.60;1.00
19000;DHT22;9633;50.980;13.850;2023-10-19T01:52:32;9.60;1.00
19000;DHT22;9633;50.980;13.850;2023-10-19T01:54:05;9.60;1.00
19000;DHT22;9633;50.980;13.850;2023-10-19T01:55:40;9.50;1.00
19000;DHT22;9633;50.980;13.850;2023-10-19T01:57:12;9.60;1.00
19000;DHT22;9633;50.980;13.850;2023-10-19T01:58:47;9.60;1.00
19000;DHT22;9633;50.980;13.850;2023-10-19T02:00:19;9.60;1.00
19000;DHT22;9633;50.980;13.850;2023-10-19T02:01:56;9.50;1.00
19000;DHT22;9633;50.980;13.850;2023-10-19T02:03:29;9.50;1.00
19000;DHT22;9633;50.980;13.850;2023-10-19T02:05:04;9.50;1.00
19000;DHT22;9633;50.980;13.850;2023-10-19T02:06:41;9.50;1.00
19000;DHT22;9633;50.980;13.850;2023-10-19T02:08:13;9.50;1.00
19000;DHT22;9633;50.980;13.850;2023-10-19T02:09:45;9.50;1.00
19000;DHT22;9633;50.980;13.850;2023-10-19T02:11:22;9.50;1.00
19000;DHT22;9633;50.980;13.850;2023-10-19T02:12:55;9.50;1.00
19000;DHT22;9633;50.980;13.850;2023-10-19T02:14:38;9.60;1.00
19000;DHT22;9633;50.980;13.850;2023-10-19T02:16:13;9.60;1.00
19000;DHT22;9633;50.980;13.850;2023-10-19T02:17:47;9.60;1.00
19000;DHT22;9633;50.980;13.850;2023-10-19T02:19:21;9.60;1.00
19000;DHT22;9633;50.980;13.850;2023-10-19T02:20:55;9.60;1.00
19000;DHT22;9633;50.980;13.850;2023-10-19T02:22:28;9.60;1.00
19000;DHT22;9633;50.980;13.850;2023-10-19T02:24:02;9.60;1.00
19000;DHT22;9633;50.980;13.850;2023-10-19T02:25:34;9.60;1.00
19000;DHT22;9633;50.980;13.850;2023-10-19T02:27:10;9.60;1.00
19000;DHT22;9633;50.980;13.850;2023-10-19T02:28:58;9.60;1.00
19000;DHT22;9633;50.980;13.850;2023-10-19T02:30:31;9.50;1.00
19000;DHT22;9633;50.980;13.850;2023-10-19T02:32:05;9.50;1.00
19000;DHT22;9633;50.980;13.850;2023-10-19T02:33:39;9.50;1.00
19000;DHT22;9633;50.980;13.850;2023-10-19T02:35:11;9.50;1.00
19000;DHT22;9633;50.980;13.850;2023-10-19T02:36:44;9.50;1.00
19000;DHT22;9633;50.980;13.850;2023-10-19T02:38:17;9.50;1.00
19000;DHT22;9633;50.980;13.850;2023-10-19T02:39:50;9.50;1.00
19000;DHT22;9633;50.980;13.850;2023-10-19T02:41:25;9.50;1.00
19000;DHT22;9633;50.980;13.850;2023-10-19T02:43:01;9.50;1.00
19000;DHT22;9633;50.980;13.850;2023-10-19T02:44:36;9.40;1.00
19000;DHT22;9633;50.980;13.850;2023-10-19T02:46:09;9.40;1.00
19000;DHT22;9633;50.980;13.850;2023-10-19T02:47:43;9.40;1.00
19000;DHT22;9633;50.980;13.850;2023-10-19T02:49:17;9.40;1.00
19000;DHT22;9633;50.980;13.850;2023-10-19T02:50:52;9.40;1.00
19000;DHT22;9633;50.980;13.850;2023-10-19T02:52:24;9.40;1.00
19000;DHT22;9633;50.980;13.850;2023-10-19T02:53:59;9.40;1.00
19000;DHT22;9633;50.980;13.850;2023-10-19T02:55:33;9.40;1.00
19000;DHT22;9633;50.980;13.850;2023-10-19T02:57:07;9.40;1.00
19000;DHT22;9633;50.980;13.850;2023-10-19T02:58:44;9.30;1.00
19000;DHT22;9633;50.980;13.850;2023-10-19T03:00:21;9.30;2.20
19000;DHT22;9633;50.980;13.850;2023-10-19T03:01:55;9.30;1.00
19000;DHT22;9633;50.980;13.850;2023-10-19T03:03:34;9.30;2.10
19000;DHT22;9633;50.980;13.850;2023-10-19T03:05:07;9.30;2.80
19000;DHT22;9633;50.980;13.850;2023-10-19T03:06:46;9.30;4.10
19000;DHT22;9633;50.980;13.850;2023-10-19T03:08:20;9.30;4.60
19000;DHT22;9633;50.980;13.850;2023-10-19T03:09:53;9.20;5.20
19000;DHT22;9633;50.980;13.850;2023-10-19T03:11:25;9.20;6.80
19000;DHT22;9633;50.980;13.850;2023-10-19T03:12:59;9.10;7.90
19000;DHT22;9633;50.980;13.850;2023-10-19T03:14:32;9.10;10.70
19000;DHT22;9633;50.980;13.850;2023-10-19T03:16:06;9.10;14.10
19000;DHT22;9633;50.980;13.850;2023-10-19T03:17:41;9.00;16.90
19000;DHT22;9633;50.980;13.850;2023-10-19T03:19:15;8.90;22.40
19000;DHT22;9633;50.980;13.850;2023-10-19T03:20:48;8.80;34.10
19000;DHT22;9633;50.980;13.850;2023-10-19T03:22:22;8.70;38.50
19000;DHT22;9633;50.980;13.850;2023-10-19T03:23:57;8.60;47.10
19000;DHT22;9633;50.980;13.850;2023-10-19T03:25:30;8.50;61.40
19000;DHT22;9633;50.980;13.850;2023-10-19T03:27:45;8.40;69.40
19000;DHT22;9633;50.980;13.850;2023-10-19T03:29:18;8.40;86.20
19000;DHT22;9633;50.980;13.850;2023-10-19T03:30:56;8.30;92.20
19000;DHT22;9633;50.980;13.850;2023-10-19T03:32:32;8.30;91.30
19000;DHT22;9633;50.980;13.850;2023-10-19T03:34:07;8.30;97.30
19000;DHT22;9633;50.980;13.850;2023-10-19T03:35:41;8.30;98.20
19000;DHT22;9633;50.980;13.850;2023-10-19T03:37:13;8.20;99.70
19000;DHT22;9633;50.980;13.850;2023-10-19T03:38:47;8.10;99.90
19000;DHT22;9633;50.980;13.850;2023-10-19T03:40:22;8.00;99.90
19000;DHT22;9633;50.980;13.850;2023-10-19T03:42:03;8.00;99.90
19000;DHT22;9633;50.980;13.850;2023-10-19T03:43:38;8.00;99.90
19000;DHT22;9633;50.980;13.850;2023-10-19T03:45:12;7.90;99.90
19000;DHT22;9633;50.980;13.850;2023-10-19T03:46:46;7.80;99.90
19000;DHT22;9633;50.980;13.850;2023-10-19T03:48:30;7.80;99.90
19000;DHT22;9633;50.980;13.850;2023-10-19T03:50:08;7.80;99.90
19000;DHT22;9633;50.980;13.850;2023-10-19T03:51:46;7.80;99.90
19000;DHT22;9633;50.980;13.850;2023-10-19T03:53:30;7.70;99.90
19000;DHT22;9633;50.980;13.850;2023-10-19T03:55:09;7.70;99.90
19000;DHT22;9633;50.980;13.850;2023-10-19T03:56:43;7.60;99.90
19000;DHT22;9633;50.980;13.850;2023-10-19T03:58:17;7.60;99.90
19000;DHT22;9633;50.980;13.850;2023-10-19T03:59:52;7.60;99.90
19000;DHT22;9633;50.980;13.850;2023-10-19T04:01:28;7.60;99.90
19000;DHT22;9633;50.980;13.850;2023-10-19T04:03:04;7.60;99.90
19000;DHT22;9633;50.980;13.850;2023-10-19T04:04:39;7.60;99.90
19000;DHT22;9633;50.980;13.850;2023-10-19T04:06:15;7.50;99.90
19000;DHT22;9633;50.980;13.850;2023-10-19T04:07:49;7.50;99.90
19000;DHT22;9633;50.980;13.850;2023-10-19T04:09:22;7.40;99.90
19000;DHT22;9633;50.980;13.850;2023-10-19T04:11:00;7.40;99.90
19000;DHT22;9633;50.980;13.850;2023-10-19T04:12:43;7.40;99.90
19000;DHT22;9633;50.980;13.850;2023-10-19T04:14:17;7.40;99.90
19000;DHT22;9633;50.980;13.850;2023-10-19T04:15:50;7.40;99.90
19000;DHT22;9633;50.980;13.850;2023-10-19T04:17:25;7.30;99.90
19000;DHT22;9633;50.980;13.850;2023-10-19T04:18:59;7.30;99.90
19000;DHT22;9633;50.980;13.850;2023-10-19T04:20:33;7.30;99.90
19000;DHT22;9633;50.980;13.850;2023-10-19T04:22:14;7.30;99.90
19000;DHT22;9633;50.980;13.850;2023-10-19T04:23:54;7.30;99.90
19000;DHT22;9633;50.980;13.850;2023-10-19T04:25:28;7.30;99.90
19000;DHT22;9633;50.980;13.850;2023-10-19T04:27:01;7.20;99.90
19000;DHT22;9633;50.980;13.850;2023-10-19T04:28:35;7.20;99.90
19000;DHT22;9633;50.980;13.850;2023-10-19T04:30:12;7.20;99.90
19000;DHT22;9633;50.980;13.850;2023-10-19T04:31:48;7.10;99.90
19000;DHT22;9633;50.980;13.850;2023-10-19T04:33:21;7.10;99.90
19000;DHT22;9633;50.980;13.850;2023-10-19T04:35:00;7.10;99.90
19000;DHT22;9633;50.980;13.850;2023-10-19T04:36:32;7.10;99.90
19000;DHT22;9633;50.980;13.850;2023-10-19T04:38:06;7.00;99.90
19000;DHT22;9633;50.980;13.850;2023-10-19T04:39:38;7.00;99.90
19000;DHT22;9633;50.980;13.850;2023-10-19T04:41:12;7.00;99.90
19000;DHT22;9633;50.980;13.850;2023-10-19T04:42:44;7.00;99.90
19000;DHT22;9633;50.980;13.850;2023-10-19T04:44:18;7.00;99.90
19000;DHT22;9633;50.980;13.850;2023-10-19T04:45:51;6.90;99.90
19000;DHT22;9633;50.980;13.850;2023-10-19T04:47:23;6.90;99.90
19000;DHT22;9633;50.980;13.850;2023-10-19T04:48:58;6.90;99.90
19000;DHT22;9633;50.980;13.850;2023-10-19T04:50:32;6.90;99.90
19000;DHT22;9633;50.980;13.850;2023-10-19T04:52:05;6.90;99.90
19000;DHT22;9633;50.980;13.850;2023-10-19T04:53:38;6.90;99.90
19000;DHT22;9633;50.980;13.850;2023-10-19T04:55:10;6.90;99.90
19000;DHT22;9633;50.980;13.850;2023-10-19T04:56:43;6.90;99.90
19000;DHT22;9633;50.980;13.850;2023-10-19T04:58:16;6.90;99.90
19000;DHT22;9633;50.980;13.850;2023-10-19T04:59:49;6.90;99.90
19000;DHT22;9633;50.980;13.850;2023-10-19T05:01:22;6.90;99.90
19000;DHT22;9633;50.980;13.850;2023-10-19T05:02:55;6.90;99.90
19000;DHT22;9633;50.980;13.850;2023-10-19T05:04:28;6.90;99.90
19000;DHT22;9633;50.980;13.850;2023-10-19T05:06:04;6.90;99.90
19000;DHT22;9633;50.980;13.850;2023-10-19T05:07:37;6.90;99.90
19000;DHT22;9633;50.980;13.850;2023-10-19T05:09:10;6.90;99.90
19000;DHT22;9633;50.980;13.850;2023-10-19T05:10:44;6.90;99.90
19000;DHT22;9633;50.980;13.850;2023-10-19T05:12:16;6.90;99.90
19000;DHT22;9633;50.980;13.850;2023-10-19T05:13:50;6.90;99.90
19000;DHT22;9633;50.980;13.850;2023-10-19T05:15:22;6.90;99.90
19000;DHT22;9633;50.980;13.850;2023-10-19T05:16:56;6.90;99.90
19000;DHT22;9633;50.980;13.850;2023-10-19T05:18:28;6.90;99.90
19000;DHT22;9633;50.980;13.850;2023-10-19T05:20:02;6.90;99.90
19000;DHT22;9633;50.980;13.850;2023-10-19T05:21:36;6.90;99.90
19000;DHT22;9633;50.980;13.850;2023-10-19T05:23:10;6.90;99.90
19000;DHT22;9633;50.980;13.850;2023-10-19T05:24:42;6.90;99.90
19000;DHT22;9633;50.980;13.850;2023-10-19T05:26:15;7.00;99.90
19000;DHT22;9633;50.980;13.850;2023-10-19T05:27:48;7.00;99.90
19000;DHT22;9633;50.980;13.850;2023-10-19T05:29:21;7.00;99.90
19000;DHT22;9633;50.980;13.850;2023-10-19T05:30:56;7.00;99.90
19000;DHT22;9633;50.980;13.850;2023-10-19T05:32:28;7.00;99.90
19000;DHT22;9633;50.980;13.850;2023-10-19T05:34:02;7.00;99.90
19000;DHT22;9633;50.980;13.850;2023-10-19T05:35:36;7.00;99.90
19000;DHT22;9633;50.980;13.850;2023-10-19T05:37:13;7.00;99.90
19000;DHT22;9633;50.980;13.850;2023-10-19T05:38:47;7.00;99.90
19000;DHT22;9633;50.980;13.850;2023-10-19T05:40:23;7.00;99.90
19000;DHT22;9633;50.980;13.850;2023-10-19T05:41:56;7.00;99.90
19000;DHT22;9633;50.980;13.850;2023-10-19T05:43:30;7.00;99.90
19000;DHT22;9633;50.980;13.850;2023-10-19T05:45:03;7.00;99.90
19000;DHT22;9633;50.980;13.850;2023-10-19T05:46:37;7.00;99.90
19000;DHT22;9633;50.980;13.850;2023-10-19T05:48:13;7.00;99.90
19000;DHT22;9633;50.980;13.850;2023-10-19T05:49:45;7.00;99.90
19000;DHT22;9633;50.980;13.850;2023-10-19T05:51:18;7.00;99.90
19000;DHT22;9633;50.980;13.850;2023-10-19T05:52:53;7.00;99.90
19000;DHT22;9633;50.980;13.850;2023-10-19T05:54:28;7.00;99.90
19000;DHT22;9633;50.980;13.850;2023-10-19T05:56:01;7.00;99.90
19000;DHT22;9633;50.980;13.850;2023-10-19T05:57:35;7.00;99.90
19000;DHT22;9633;50.980;13.850;2023-10-19T05:59:07;7.00;99.90
19000;DHT22;9633;50.980;13.850;2023-10-19T06:00:42;7.00;99.90
19000;DHT22;9633;50.980;13.850;2023-10-19T06:02:15;7.00;99.90
19000;DHT22;9633;50.980;13.850;2023-10-19T06:03:53;7.00;99.90
19000;DHT22;9633;50.980;13.850;2023-10-19T06:05:28;7.00;99.90
19000;DHT22;9633;50.980;13.850;2023-10-19T06:07:02;7.00;99.90
19000;DHT22;9633;50.980;13.850;2023-10-19T06:08:36;7.00;99.90
19000;DHT22;9633;50.980;13.850;2023-10-19T06:10:12;7.00;99.90
19000;DHT22;9633;50.980;13.850;2023-10-19T06:11:47;7.00;99.90
19000;DHT22;9633;50.980;13.850;2023-10-19T06:13:21;7.00;99.90
19000;DHT22;9633;50.980;13.850;2023-10-19T06:14:54;7.00;99.90
19000;DHT22;9633;50.980;13.850;2023-10-19T06:16:27;7.00;99.90
19000;DHT22;9633;50.980;13.850;2023-10-19T06:18:01;7.00;99.90
19000;DHT22;9633;50.980;13.850;2023-10-19T06:19:33;7.10;99.90
19000;DHT22;9633;50.980;13.850;2023-10-19T06:21:06;7.10;99.90
19000;DHT22;9633;50.980;13.850;2023-10-19T06:22:39;7.10;99.90
19000;DHT22;9633;50.980;13.850;2023-10-19T06:24:13;7.10;99.90
19000;DHT22;9633;50.980;13.850;2023-10-19T06:25:46;7.10;99.90
19000;DHT22;9633;50.980;13.850;2023-10-19T06:27:20;7.10;99.90
19000;DHT22;9633;50.980;13.850;2023-10-19T06:28:52;7.20;99.90
19000;DHT22;9633;50.980;13.850;2023-10-19T06:30:30;7.20;99.90
19000;DHT22;9633;50.980;13.850;2023-10-19T06:32:02;7.20;99.90
19000;DHT22;9633;50.980;13.850;2023-10-19T06:33:36;7.20;99.90
19000;DHT22;9633;50.980;13.850;2023-10-19T06:35:13;7.20;99.90
19000;DHT22;9633;50.980;13.850;2023-10-19T06:36:46;7.20;99.90
19000;DHT22;9633;50.980;13.850;2023-10-19T06:38:20;7.20;99.90
19000;DHT22;9633;50.980;13.850;2023-10-19T06:39:53;7.20;99.90
19000;DHT22;9633;50.980;13.850;2023-10-19T06:41:26;7.20;99.90
19000;DHT22;9633;50.980;13.850;2023-10-19T06:42:59;7.20;99.90
19000;DHT22;9633;50.980;13.850;2023-10-19T06:44:34;7.20;99.90
19000;DHT22;9633;50.980;13.850;2023-10-19T06:46:08;7.20;99.90
19000;DHT22;9633;50.980;13.850;2023-10-19T06:47:45;7.20;99.90
19000;DHT22;9633;50.980;13.850;2023-10-19T06:49:18;7.20;99.90
19000;DHT22;9633;50.980;13.850;2023-10-19T06:50:51;7.30;99.90
19000;DHT22;9633;50.980;13.850;2023-10-19T06:52:24;7.30;99.90
19000;DHT22;9633;50.980;13.850;2023-10-19T06:53:57;7.30;99.90
19000;DHT22;9633;50.980;13.850;2023-10-19T06:55:31;7.20;99.90
19000;DHT22;9633;50.980;13.850;2023-10-19T06:57:05;7.30;99.90
19000;DHT22;9633;50.980;13.850;2023-10-19T06:58:39;7.30;99.90
19000;DHT22;9633;50.980;13.850;2023-10-19T07:00:13;7.30;99.90
19000;DHT22;9633;50.980;13.850;2023-10-19T07:01:50;7.30;99.90
19000;DHT22;9633;50.980;13.850;2023-10-19T07:03:23;7.30;99.90
19000;DHT22;9633;50.980;13.850;2023-10-19T07:04:57;7.30;99.90
19000;DHT22;9633;50.980;13.850;2023-10-19T07:06:29;7.30;99.90
19000;DHT22;9633;50.980;13.850;2023-10-19T07:08:04;7.30;99.90
19000;DHT22;9633;50.980;13.850;2023-10-19T07:09:39;7.30;99.90
19000;DHT22;9633;50.980;13.850;2023-10-19T07:11:14;7.30;99.90
19000;DHT22;9633;50.980;13.850;2023-10-19T07:12:50;7.30;99.90
19000;DHT22;9633;50.980;13.850;2023-10-19T07:14:25;7.30;99.90
19000;DHT22;9633;50.980;13.850;2023-10-19T07:15:57;7.30;99.90
19000;DHT22;9633;50.980;13.850;2023-10-19T07:17:31;7.30;99.90
19000;DHT22;9633;50.980;13.850;2023-10-19T07:19:03;7.30;99.90
19000;DHT22;9633;50.980;13.850;2023-10-19T07:20:37;7.30;99.90
19000;DHT22;9633;50.980;13.850;2023-10-19T07:22:10;7.30;99.90
19000;DHT22;9633;50.980;13.850;2023-10-19T07:23:46;7.30;99.90
19000;DHT22;9633;50.980;13.850;2023-10-19T07:25:21;7.30;99.90
19000;DHT22;9633;50.980;13.850;2023-10-19T07:26:55;7.40;99.90
19000;DHT22;9633;50.980;13.850;2023-10-19T07:28:35;7.30;99.90
19000;DHT22;9633;50.980;13.850;2023-10-19T07:30:12;7.30;99.90
19000;DHT22;9633;50.980;13.850;2023-10-19T07:31:47;7.40;99.90
19000;DHT22;9633;50.980;13.850;2023-10-19T07:33:20;7.40;99.90
19000;DHT22;9633;50.980;13.850;2023-10-19T07:34:53;7.30;99.90
19000;DHT22;9633;50.980;13.850;2023-10-19T07:36:26;7.30;99.90
19000;DHT22;9633;50.980;13.850;2023-10-19T07:38:01;7.30;99.90
19000;DHT22;9633;50.980;13.850;2023-10-19T07:39:35;7.30;99.90
19000;DHT22;9633;50.980;13.850;2023-10-19T07:41:11;7.30;99.90
19000;DHT22;9633;50.980;13.850;2023-10-19T07:42:46;7.30;99.90
19000;DHT22;9633;50.980;13.850;2023-10-19T07:44:18;7.40;99.90
19000;DHT22;9633;50.980;13.850;2023-10-19T07:45:51;7.30;99.90
19000;DHT22;9633;50.980;13.850;2023-10-19T07:47:25;7.30;99.90
19000;DHT22;9633;50.980;13.850;2023-10-19T07:48:57;7.30;99.90
19000;DHT22;9633;50.980;13.850;2023-10-19T07:50:33;7.30;99.90
19000;DHT22;9633;50.980;13.850;2023-10-19T07:52:05;7.30;99.90
19000;DHT22;9633;50.980;13.850;2023-10-19T07:53:39;7.30;99.90
19000;DHT22;9633;50.980;13.850;2023-10-19T07:55:12;7.30;99.90
19000;DHT22;9633;50.980;13.850;2023-10-19T07:56:45;7.30;99.90
19000;DHT22;9633;50.980;13.850;2023-10-19T07:58:21;7.30;99.90
19000;DHT22;9633;50.980;13.850;2023-10-19T07:59:54;7.30;99.90
19000;DHT22;9633;50.980;13.850;2023-10-19T08:01:29;7.40;99.90
19000;DHT22;9633;50.980;13.850;2023-10-19T08:03:01;7.40;99.90
19000;DHT22;9633;50.980;13.850;2023-10-19T08:04:35;7.40;99.90
19000;DHT22;9633;50.980;13.850;2023-10-19T08:06:08;7.40;99.90
19000;DHT22;9633;50.980;13.850;2023-10-19T08:07:42;7.40;99.90
19000;DHT22;9633;50.980;13.850;2023-10-19T08:09:15;7.40;99.90
19000;DHT22;9633;50.980;13.850;2023-10-19T08:10:54;7.40;99.90
19000;DHT22;9633;50.980;13.850;2023-10-19T08:12:29;7.30;99.90
19000;DHT22;9633;50.980;13.850;2023-10-19T08:14:04;7.40;99.90
19000;DHT22;9633;50.980;13.850;2023-10-19T08:15:38;7.40;99.90
19000;DHT22;9633;50.980;13.850;2023-10-19T08:17:10;7.40;99.90
19000;DHT22;9633;50.980;13.850;2023-10-19T08:18:44;7.40;99.90
19000;DHT22;9633;50.980;13.850;2023-10-19T08:20:18;7.40;99.90
19000;DHT22;9633;50.980;13.850;2023-10-19T08:21:56;7.40;99.90
19000;DHT22;9633;50.980;13.850;2023-10-19T08:23:29;7.40;99.90
19000;DHT22;9633;50.980;13.850;2023-10-19T08:25:04;7.50;99.90
19000;DHT22;9633;50.980;13.850;2023-10-19T08:26:43;7.50;99.90
19000;DHT22;9633;50.980;13.850;2023-10-19T08:28:17;7.50;99.90
19000;DHT22;9633;50.980;13.850;2023-10-19T08:29:51;7.50;99.90
19000;DHT22;9633;50.980;13.850;2023-10-19T08:31:23;7.50;99.90
19000;DHT22;9633;50.980;13.850;2023-10-19T08:32:57;7.50;99.90
19000;DHT22;9633;50.980;13.850;2023-10-19T08:34:33;7.50;99.90
19000;DHT22;9633;50.980;13.850;2023-10-19T08:36:17;7.50;99.90
19000;DHT22;9633;50.980;13.850;2023-10-19T08:37:51;7.60;99.90
19000;DHT22;9633;50.980;13.850;2023-10-19T08:39:24;7.60;99.90
19000;DHT22;9633;50.980;13.850;2023-10-19T08:40:57;7.60;99.90
19000;DHT22;9633;50.980;13.850;2023-10-19T08:42:32;7.60;99.90
19000;DHT22;9633;50.980;13.850;2023-10-19T08:44:07;7.60;99.90
19000;DHT22;9633;50.980;13.850;2023-10-19T08:45:44;7.60;99.90
19000;DHT22;9633;50.980;13.850;2023-10-19T08:47:17;7.60;99.90
19000;DHT22;9633;50.980;13.850;2023-10-19T08:48:50;7.70;99.90
19000;DHT22;9633;50.980;13.850;2023-10-19T08:50:27;7.70;99.90
19000;DHT22;9633;50.980;13.850;2023-10-19T08:52:02;7.70;99.90
19000;DHT22;9633;50.980;13.850;2023-10-19T08:53:37;7.70;99.90
19000;DHT22;9633;50.980;13.850;2023-10-19T08:55:12;7.70;99.90
19000;DHT22;9633;50.980;13.850;2023-10-19T08:56:45;7.70;99.90
19000;DHT22;9633;50.980;13.850;2023-10-19T08:58:20;7.70;99.90
19000;DHT22;9633;50.980;13.850;2023-10-19T08:59:54;7.70;99.90
19000;DHT22;9633;50.980;13.850;2023-10-19T09:01:31;7.80;99.90
19000;DHT22;9633;50.980;13.850;2023-10-19T09:03:04;7.80;99.90
19000;DHT22;9633;50.980;13.850;2023-10-19T09:04:41;7.80;99.90
19000;DHT22;9633;50.980;13.850;2023-10-19T09:06:14;7.80;99.90
19000;DHT22;9633;50.980;13.850;2023-10-19T09:07:48;7.80;99.90
19000;DHT22;9633;50.980;13.850;2023-10-19T09:09:28;7.90;99.90
19000;DHT22;9633;50.980;13.850;2023-10-19T09:11:06;7.90;99.90
19000;DHT22;9633;50.980;13.850;2023-10-19T09:12:39;7.90;99.90
19000;DHT22;9633;50.980;13.850;2023-10-19T09:14:12;8.00;99.90
19000;DHT22;9633;50.980;13.850;2023-10-19T09:15:47;8.00;99.90
19000;DHT22;9633;50.980;13.850;2023-10-19T09:17:29;8.00;99.90
19000;DHT22;9633;50.980;13.850;2023-10-19T09:19:06;8.10;99.90
19000;DHT22;9633;50.980;13.850;2023-10-19T09:20:40;8.10;99.90
19000;DHT22;9633;50.980;13.850;2023-10-19T09:22:13;8.20;99.90
19000;DHT22;9633;50.980;13.850;2023-10-19T09:23:50;8.20;99.90
19000;DHT22;9633;50.980;13.850;2023-10-19T09:25:23;8.30;99.90
19000;DHT22;9633;50.980;13.850;2023-10-19T09:26:57;8.30;99.90
19000;DHT22;9633;50.980;13.850;2023-10-19T09:28:29;8.40;99.90
19000;DHT22;9633;50.980;13.850;2023-10-19T09:30:08;8.40;99.90
19000;DHT22;9633;50.980;13.850;2023-10-19T09:31:41;8.40;99.90
19000;DHT22;9633;50.980;13.850;2023-10-19T09:33:17;8.50;99.90
19000;DHT22;9633;50.980;13.850;2023-10-19T09:34:50;8.50;99.90
19000;DHT22;9633;50.980;13.850;2023-10-19T09:36:25;8.60;99.90
19000;DHT22;9633;50.980;13.850;2023-10-19T09:37:59;8.60;99.90
19000;DHT22;9633;50.980;13.850;2023-10-19T09:39:32;8.60;99.90
19000;DHT22;9633;50.980;13.850;2023-10-19T09:41:06;8.70;99.90
19000;DHT22;9633;50.980;13.850;2023-10-19T09:42:43;8.80;99.90
19000;DHT22;9633;50.980;13.850;2023-10-19T09:44:21;8.90;99.90
19000;DHT22;9633;50.980;13.850;2023-10-19T09:45:57;9.00;99.90
19000;DHT22;9633;50.980;13.850;2023-10-19T09:47:35;9.10;99.90
19000;DHT22;9633;50.980;13.850;2023-10-19T09:49:12;9.30;99.90
19000;DHT22;9633;50.980;13.850;2023-10-19T09:50:51;9.30;99.90
19000;DHT22;9633;50.980;13.850;2023-10-19T09:52:27;9.40;99.90
19000;DHT22;9633;50.980;13.850;2023-10-19T09:54:11;9.40;99.90
19000;DHT22;9633;50.980;13.850;2023-10-19T09:55:47;9.50;99.90
19000;DHT22;9633;50.980;13.850;2023-10-19T09:57:35;9.50;99.90
19000;DHT22;9633;50.980;13.850;2023-10-19T09:59:18;9.50;99.90
19000;DHT22;9633;50.980;13.850;2023-10-19T10:00:55;9.50;99.90
19000;DHT22;9633;50.980;13.850;2023-10-19T10:02:29;9.50;99.90
19000;DHT22;9633;50.980;13.850;2023-10-19T10:04:03;9.40;99.90
19000;DHT22;9633;50.980;13.850;2023-10-19T10:05:48;9.40;99.90
19000;DHT22;9633;50.980;13.850;2023-10-19T10:07:22;9.40;99.90
19000;DHT22;9633;50.980;13.850;2023-10-19T10:09:03;9.40;99.90
19000;DHT22;9633;50.980;13.850;2023-10-19T10:10:36;9.40;99.90
19000;DHT22;9633;50.980;13.850;2023-10-19T10:12:19;9.40;99.90